createdAt,value
2019-05-12T00:00:44.337Z,7.80
2019-05-12T00:03:18.706Z,7.80
2019-05-12T00:05:50.715Z,7.70
2019-05-12T00:08:22.851Z,7.70
2019-05-12T00:10:54.795Z,7.70
2019-05-12T00:13:27.907Z,7.80
2019-05-12T00:15:59.974Z,7.70
2019-05-12T00:18:32.130Z,7.80
2019-05-12T00:21:04.102Z,7.90
2019-05-12T00:23:55.251Z,7.60
2019-05-12T00:26:28.410Z,7.60
2019-05-12T00:29:00.603Z,7.80
2019-05-12T00:31:32.785Z,7.50
2019-05-12T00:34:04.656Z,7.60
2019-05-12T00:36:37.992Z,7.70
2019-05-12T00:39:10.260Z,7.80
2019-05-12T00:41:44.537Z,7.60
2019-05-12T00:44:18.408Z,7.60
2019-05-12T00:46:50.556Z,7.70
2019-05-12T00:49:22.400Z,7.60
2019-05-12T00:51:54.377Z,7.60
2019-05-12T00:54:28.266Z,7.40
2019-05-12T00:57:00.157Z,7.50
2019-05-12T00:59:32.288Z,7.60
2019-05-12T01:02:04.191Z,7.60
2019-05-12T01:04:38.109Z,7.50
2019-05-12T01:07:10.368Z,7.80
2019-05-12T01:09:42.934Z,7.70
2019-05-12T01:12:15.058Z,7.40
2019-05-12T01:14:47.786Z,7.70
2019-05-12T01:17:19.832Z,7.70
2019-05-12T01:19:52.122Z,7.70
2019-05-12T01:22:24.696Z,7.80
2019-05-12T01:24:57.841Z,7.60
2019-05-12T01:27:29.898Z,7.90
2019-05-12T01:30:01.844Z,8.10
2019-05-12T01:32:39.338Z,8.10
2019-05-12T01:35:13.412Z,7.80
2019-05-12T01:37:45.316Z,7.60
2019-05-12T01:40:19.101Z,7.70
2019-05-12T01:42:51.473Z,7.60
2019-05-12T01:45:23.311Z,7.60
2019-05-12T01:47:55.893Z,7.60
2019-05-12T01:50:28.361Z,7.40
2019-05-12T01:53:00.486Z,7.30
2019-05-12T01:55:32.687Z,7.50
2019-05-12T01:58:04.922Z,7.30
2019-05-12T02:00:38.802Z,7.20
2019-05-12T02:03:10.992Z,7.10
2019-05-12T02:05:45.897Z,7.00
2019-05-12T02:08:27.891Z,7.20
2019-05-12T02:11:18.451Z,7.00
2019-05-12T02:13:50.670Z,7.00
2019-05-12T02:16:23.559Z,7.10
2019-05-12T02:18:58.166Z,6.90
2019-05-12T02:21:29.624Z,7.00
2019-05-12T02:24:01.501Z,7.20
2019-05-12T02:26:33.667Z,7.00
2019-05-12T02:29:07.718Z,7.30
2019-05-12T02:31:39.940Z,7.20
2019-05-12T02:34:15.285Z,7.40
2019-05-12T02:36:45.997Z,7.20
2019-05-12T02:39:17.915Z,7.30
2019-05-12T02:41:49.756Z,7.10
2019-05-12T02:44:24.790Z,7.20
2019-05-12T02:46:55.685Z,7.20
2019-05-12T02:49:27.691Z,7.10
2019-05-12T02:52:00.326Z,7.20
2019-05-12T02:54:50.098Z,7.10
2019-05-12T02:57:07.042Z,7.20
2019-05-12T02:59:44.785Z,7.20
2019-05-12T03:02:17.630Z,7.20
2019-05-12T03:04:54.427Z,7.20
2019-05-12T03:07:27.241Z,7.20
2019-05-12T03:10:05.024Z,7.20
2019-05-12T03:12:36.454Z,7.20
2019-05-12T03:15:08.464Z,7.30
2019-05-12T03:17:40.539Z,7.20
2019-05-12T03:20:15.433Z,7.50
2019-05-12T03:22:46.367Z,7.40
2019-05-12T03:25:24.556Z,7.40
2019-05-12T03:27:54.508Z,7.50
2019-05-12T03:30:28.948Z,7.30
2019-05-12T03:33:00.289Z,7.40
2019-05-12T03:35:39.616Z,7.60
2019-05-12T03:38:06.012Z,7.60
2019-05-12T03:40:38.933Z,7.50
2019-05-12T03:43:14.251Z,7.50
2019-05-12T03:45:45.621Z,7.40
2019-05-12T03:48:17.813Z,7.40
2019-05-12T03:50:49.857Z,7.50
2019-05-12T03:53:24.640Z,7.40
2019-05-12T03:55:56.190Z,7.40
2019-05-12T03:58:28.079Z,7.50
2019-05-12T04:01:00.240Z,7.30
2019-05-12T04:03:34.546Z,7.40
2019-05-12T04:06:05.976Z,7.50
2019-05-12T04:08:38.208Z,7.70
2019-05-12T04:11:10.140Z,7.60
2019-05-12T04:13:45.229Z,7.60
2019-05-12T04:16:16.719Z,7.50
2019-05-12T04:18:49.024Z,7.70
2019-05-12T04:21:24.070Z,7.50
2019-05-12T04:23:55.101Z,7.40
2019-05-12T04:26:27.623Z,7.60
2019-05-12T04:28:59.465Z,7.70
2019-05-12T04:31:31.375Z,7.60
2019-05-12T04:34:05.224Z,7.80
2019-05-12T04:36:37.668Z,7.80
2019-05-12T04:39:09.585Z,7.70
2019-05-12T04:41:44.673Z,8.10
2019-05-12T04:44:16.138Z,8.00
2019-05-12T04:46:48.696Z,8.20
2019-05-12T04:49:20.559Z,7.90
2019-05-12T04:51:54.576Z,8.00
2019-05-12T04:54:27.328Z,8.00
2019-05-12T04:56:59.241Z,8.10
2019-05-12T04:59:34.282Z,8.00
2019-05-12T05:02:05.583Z,8.00
2019-05-12T05:04:37.606Z,8.00
2019-05-12T05:07:09.482Z,8.00
2019-05-12T05:09:44.141Z,8.30
2019-05-12T05:12:15.015Z,8.40
2019-05-12T05:14:47.860Z,8.50
2019-05-12T05:17:19.756Z,8.40
2019-05-12T05:19:53.326Z,8.30
2019-05-12T05:22:25.719Z,8.40
2019-05-12T05:24:58.349Z,8.00
2019-05-12T05:27:30.218Z,8.10
2019-05-12T05:30:03.988Z,8.10
2019-05-12T05:32:36.475Z,8.20
2019-05-12T05:35:08.802Z,8.20
2019-05-12T05:37:43.562Z,8.10
2019-05-12T05:40:14.390Z,8.00
2019-05-12T05:42:46.996Z,8.10
2019-05-12T05:45:23.655Z,7.90
2019-05-12T05:47:54.441Z,7.90
2019-05-12T05:50:29.561Z,8.00
2019-05-12T05:53:00.167Z,7.90
2019-05-12T05:55:34.375Z,8.10
2019-05-12T05:58:10.418Z,8.10
2019-05-12T06:00:40.180Z,8.20
2019-05-12T06:03:22.584Z,8.50
2019-05-12T06:05:46.880Z,8.50
2019-05-12T06:08:20.762Z,8.60
2019-05-12T06:10:54.285Z,8.60
2019-05-12T06:13:31.669Z,8.60
2019-05-12T06:16:00.571Z,8.60
2019-05-12T06:18:33.483Z,8.70
2019-05-12T06:21:05.522Z,8.80
2019-05-12T06:23:39.975Z,8.90
2019-05-12T06:26:14.076Z,9.00
2019-05-12T06:28:45.599Z,9.10
2019-05-12T06:31:18.858Z,9.20
2019-05-12T06:33:53.581Z,9.30
2019-05-12T06:36:27.352Z,9.30
2019-05-12T06:38:59.613Z,9.40
2019-05-12T06:41:33.630Z,9.20
2019-05-12T06:44:08.757Z,9.40
2019-05-12T06:46:39.235Z,9.20
2019-05-12T06:49:15.306Z,9.40
2019-05-12T06:51:46.253Z,9.70
2019-05-12T06:54:18.643Z,9.70
2019-05-12T06:56:57.677Z,9.20
2019-05-12T06:59:25.431Z,9.20
2019-05-12T07:02:00.447Z,9.30
2019-05-12T07:04:33.862Z,9.40
2019-05-12T07:07:06.303Z,9.40
2019-05-12T07:09:50.108Z,9.20
2019-05-12T07:12:13.742Z,9.20
2019-05-12T07:14:48.996Z,9.60
2019-05-12T07:17:45.341Z,9.60
2019-05-12T07:20:16.605Z,9.60
2019-05-12T07:22:48.867Z,9.70
2019-05-12T07:25:24.554Z,10.00
2019-05-12T07:28:00.766Z,10.20
2019-05-12T07:30:32.683Z,10.30
2019-05-12T07:33:04.950Z,10.30
2019-05-12T07:35:37.447Z,10.30
2019-05-12T07:38:12.026Z,10.60
2019-05-12T07:40:44.596Z,10.50
2019-05-12T07:43:20.501Z,10.50
2019-05-12T07:45:56.579Z,10.20
2019-05-12T07:48:25.540Z,10.30
2019-05-12T07:51:00.777Z,10.60
2019-05-12T07:53:34.098Z,10.20
2019-05-12T07:56:06.259Z,10.50
2019-05-12T07:58:40.919Z,10.40
2019-05-12T08:01:14.605Z,10.50
2019-05-12T08:03:50.972Z,10.90
2019-05-12T08:06:21.398Z,11.20
2019-05-12T08:08:58.232Z,11.70
2019-05-12T08:11:28.808Z,11.40
2019-05-12T08:14:03.474Z,11.70
2019-05-12T08:16:37.014Z,11.50
2019-05-12T08:19:14.852Z,11.40
2019-05-12T08:21:49.147Z,11.50
2019-05-12T08:24:19.343Z,11.60
2019-05-12T08:26:59.564Z,11.90
2019-05-12T08:29:25.632Z,11.80
2019-05-12T08:31:58.835Z,11.80
2019-05-12T08:34:30.766Z,12.00
2019-05-12T08:37:04.309Z,11.70
2019-05-12T08:39:38.888Z,11.90
2019-05-12T08:42:10.311Z,12.10
2019-05-12T08:44:43.954Z,12.40
2019-05-12T08:47:16.735Z,12.40
2019-05-12T08:49:55.438Z,12.60
2019-05-12T08:52:23.587Z,12.30
2019-05-12T08:54:55.764Z,12.10
2019-05-12T08:57:34.935Z,12.30
2019-05-12T09:00:03.172Z,12.60
2019-05-12T09:02:39.953Z,12.80
2019-05-12T09:05:10.433Z,13.00
2019-05-12T09:07:43.548Z,13.40
2019-05-12T09:10:15.974Z,13.50
2019-05-12T09:12:48.647Z,13.50
2019-05-12T09:15:20.787Z,13.40
2019-05-12T09:17:56.920Z,13.30
2019-05-12T09:20:26.975Z,13.30
2019-05-12T09:23:00.828Z,13.50
2019-05-12T09:25:34.129Z,13.10
2019-05-12T09:28:06.293Z,13.00
2019-05-12T09:30:39.971Z,13.00
2019-05-12T09:33:13.840Z,13.00
2019-05-12T09:35:45.723Z,13.60
2019-05-12T09:38:22.869Z,13.50
2019-05-12T09:40:52.835Z,13.90
2019-05-12T09:43:25.914Z,14.00
2019-05-12T09:45:58.075Z,13.80
2019-05-12T09:48:33.339Z,13.60
2019-05-12T09:51:07.887Z,13.50
2019-05-12T09:53:42.882Z,13.60
2019-05-12T09:56:15.107Z,13.50
2019-05-12T09:58:58.231Z,13.80
2019-05-12T10:01:21.353Z,14.30
2019-05-12T10:03:54.514Z,14.80
2019-05-12T10:06:27.364Z,15.20
2019-05-12T10:09:00.302Z,15.20
2019-05-12T10:11:32.355Z,14.90
2019-05-12T10:14:06.511Z,14.00
2019-05-12T10:16:39.505Z,13.80
2019-05-12T10:19:14.457Z,13.80
2019-05-12T10:21:49.068Z,14.20
2019-05-12T10:24:21.090Z,15.00
2019-05-12T10:26:54.291Z,15.10
2019-05-12T10:29:30.497Z,15.40
2019-05-12T10:32:01.010Z,16.00
2019-05-12T10:34:35.985Z,16.20
2019-05-12T10:37:08.063Z,16.70
2019-05-12T10:39:40.768Z,17.40
2019-05-12T10:42:17.482Z,17.80
2019-05-12T10:44:49.536Z,17.80
2019-05-12T10:47:23.922Z,17.90
2019-05-12T10:49:56.883Z,17.70
2019-05-12T10:52:29.502Z,17.60
2019-05-12T10:55:04.535Z,17.10
2019-05-12T10:57:36.921Z,16.60
2019-05-12T11:00:11.708Z,16.10
2019-05-12T11:02:44.315Z,16.30
2019-05-12T11:05:21.121Z,16.90
2019-05-12T11:07:51.472Z,16.20
2019-05-12T11:10:23.484Z,16.00
2019-05-12T11:12:59.273Z,16.10
2019-05-12T11:15:29.842Z,16.30
2019-05-12T11:18:28.167Z,16.20
2019-05-12T11:21:03.432Z,17.10
2019-05-12T11:23:39.322Z,17.10
2019-05-12T11:26:14.161Z,16.40
2019-05-12T11:28:48.068Z,15.70
2019-05-12T11:31:20.142Z,15.00
2019-05-12T11:33:54.134Z,14.50
2019-05-12T11:36:26.454Z,14.70
2019-05-12T11:38:58.730Z,16.40
2019-05-12T11:41:33.334Z,17.70
2019-05-12T11:44:06.047Z,18.30
2019-05-12T11:46:38.427Z,17.70
2019-05-12T11:49:10.330Z,17.10
2019-05-12T11:51:42.976Z,16.40
2019-05-12T11:54:15.158Z,15.90
2019-05-12T11:56:50.413Z,15.60
2019-05-12T11:59:23.719Z,15.20
2019-05-12T12:01:56.544Z,17.00
2019-05-12T12:04:45.808Z,17.70
2019-05-12T12:07:17.918Z,17.10
2019-05-12T12:09:56.061Z,16.50
2019-05-12T12:12:24.911Z,15.70
2019-05-12T12:14:56.787Z,15.50
2019-05-12T12:17:35.089Z,15.20
2019-05-12T12:20:03.751Z,15.00
2019-05-12T12:22:46.105Z,14.80
2019-05-12T12:25:23.368Z,14.70
2019-05-12T12:27:56.036Z,14.60
2019-05-12T12:30:41.768Z,14.80
2019-05-12T12:33:17.247Z,16.70
2019-05-12T12:35:50.377Z,19.10
2019-05-12T12:38:24.062Z,20.00
2019-05-12T12:40:56.158Z,19.20
2019-05-12T12:43:28.383Z,19.50
2019-05-12T12:46:10.652Z,19.60
2019-05-12T12:48:40.361Z,21.20
2019-05-12T12:51:17.241Z,22.50
2019-05-12T12:53:47.202Z,23.30
2019-05-12T12:56:26.585Z,23.70
2019-05-12T12:58:55.416Z,23.90
2019-05-12T13:01:30.861Z,24.30
2019-05-12T13:04:04.586Z,25.00
2019-05-12T13:06:36.661Z,24.30
2019-05-12T13:09:18.297Z,22.10
2019-05-12T13:11:44.431Z,20.10
2019-05-12T13:14:17.241Z,19.20
2019-05-12T13:16:54.700Z,19.60
2019-05-12T13:19:24.560Z,19.50
2019-05-12T13:21:56.859Z,20.10
2019-05-12T13:24:29.702Z,21.50
2019-05-12T13:27:03.616Z,22.40
2019-05-12T13:29:39.741Z,20.10
2019-05-12T13:32:10.858Z,18.90
2019-05-12T13:34:43.079Z,17.70
2019-05-12T13:37:19.298Z,16.90
2019-05-12T13:39:55.767Z,17.40
2019-05-12T13:42:24.154Z,18.70
2019-05-12T13:44:56.166Z,21.80
2019-05-12T13:47:28.967Z,23.80
2019-05-12T13:50:04.040Z,22.60
2019-05-12T13:52:36.092Z,19.50
2019-05-12T13:55:08.143Z,18.70
2019-05-12T13:57:46.217Z,17.90
2019-05-12T14:00:14.380Z,17.40
2019-05-12T14:02:48.965Z,17.00
2019-05-12T14:05:20.472Z,17.40
2019-05-12T14:07:55.666Z,18.40
2019-05-12T14:10:26.515Z,18.90
2019-05-12T14:13:03.385Z,19.50
2019-05-12T14:15:35.020Z,18.40
2019-05-12T14:18:10.322Z,17.90
2019-05-12T14:20:44.882Z,17.40
2019-05-12T14:23:14.925Z,16.70
2019-05-12T14:25:48.542Z,17.10
2019-05-12T14:28:23.417Z,17.10
2019-05-12T14:30:55.997Z,18.20
2019-05-12T14:33:29.906Z,19.50
2019-05-12T14:36:04.123Z,18.70
2019-05-12T14:38:36.313Z,17.90
2019-05-12T14:41:11.583Z,17.40
2019-05-12T14:43:47.253Z,17.20
2019-05-12T14:46:17.711Z,17.20
2019-05-12T14:48:50.606Z,17.50
2019-05-12T14:51:24.579Z,18.00
2019-05-12T14:53:57.277Z,19.20
2019-05-12T14:56:29.881Z,19.30
2019-05-12T14:59:03.587Z,18.40
2019-05-12T15:01:51.610Z,17.60
2019-05-12T15:04:10.604Z,17.80
2019-05-12T15:06:44.318Z,17.30
2019-05-12T15:09:20.629Z,17.20
2019-05-12T15:11:51.017Z,17.00
2019-05-12T15:14:24.537Z,17.30
2019-05-12T15:16:57.910Z,17.80
2019-05-12T15:19:33.414Z,18.50
2019-05-12T15:22:07.653Z,19.10
2019-05-12T15:24:39.191Z,18.40
2019-05-12T15:27:13.312Z,18.40
2019-05-12T15:29:50.004Z,18.20
2019-05-12T15:32:19.809Z,18.90
2019-05-12T15:34:52.022Z,20.20
2019-05-12T15:37:29.045Z,21.40
2019-05-12T15:39:58.899Z,20.70
2019-05-12T15:42:30.715Z,19.20
2019-05-12T15:45:06.404Z,17.90
2019-05-12T15:47:37.837Z,16.30
2019-05-12T15:50:11.625Z,16.00
2019-05-12T15:52:45.465Z,16.00
2019-05-12T15:55:18.624Z,17.10
2019-05-12T15:57:51.640Z,18.60
2019-05-12T16:00:24.494Z,18.50
2019-05-12T16:02:58.799Z,18.00
2019-05-12T16:05:35.320Z,17.60
2019-05-12T16:08:08.120Z,16.60
2019-05-12T16:10:40.363Z,16.60
2019-05-12T16:13:15.478Z,16.60
2019-05-12T16:15:49.307Z,16.20
2019-05-12T16:18:23.523Z,16.20
2019-05-12T16:20:59.122Z,16.00
2019-05-12T16:23:30.378Z,16.00
2019-05-12T16:26:10.324Z,16.20
2019-05-12T16:28:37.524Z,15.80
2019-05-12T16:31:09.951Z,15.30
2019-05-12T16:33:44.019Z,15.20
2019-05-12T16:36:16.212Z,15.70
2019-05-12T16:38:50.105Z,16.40
2019-05-12T16:41:27.995Z,16.30
2019-05-12T16:43:57.004Z,16.60
2019-05-12T16:46:29.562Z,16.40
2019-05-12T16:49:03.331Z,16.20
2019-05-12T16:51:35.472Z,16.60
2019-05-12T16:54:07.967Z,16.80
2019-05-12T16:56:43.251Z,16.60
2019-05-12T16:59:21.702Z,16.30
2019-05-12T17:01:49.169Z,15.90
2019-05-12T17:04:23.744Z,16.00
2019-05-12T17:06:56.250Z,15.90
2019-05-12T17:09:28.417Z,16.00
2019-05-12T17:12:00.299Z,15.70
2019-05-12T17:14:36.592Z,15.90
2019-05-12T17:17:06.159Z,15.90
2019-05-12T17:19:38.224Z,15.60
2019-05-12T17:22:13.376Z,15.70
2019-05-12T17:24:45.013Z,15.10
2019-05-12T17:27:23.858Z,15.20
2019-05-12T17:29:54.054Z,15.40
2019-05-12T17:32:25.608Z,15.40
2019-05-12T17:34:58.504Z,15.30
2019-05-12T17:37:36.570Z,15.30
2019-05-12T17:40:09.230Z,14.90
2019-05-12T17:42:39.457Z,15.20
2019-05-12T17:45:17.919Z,15.00
2019-05-12T17:47:46.241Z,14.90
2019-05-12T17:50:18.213Z,14.60
2019-05-12T17:52:58.659Z,14.60
2019-05-12T17:55:24.782Z,14.60
2019-05-12T17:57:57.982Z,14.70
2019-05-12T18:00:29.937Z,14.30
2019-05-12T18:03:15.536Z,14.60
2019-05-12T18:05:35.409Z,14.60
2019-05-12T18:08:07.284Z,14.60
2019-05-12T18:10:40.577Z,14.40
2019-05-12T18:13:15.044Z,14.40
2019-05-12T18:15:46.357Z,14.30
2019-05-12T18:18:25.841Z,14.30
2019-05-12T18:20:55.656Z,14.00
2019-05-12T18:23:30.339Z,14.00
2019-05-12T18:26:02.978Z,14.00
2019-05-12T18:28:35.303Z,14.00
2019-05-12T18:31:07.571Z,14.10
2019-05-12T18:33:49.004Z,14.10
2019-05-12T18:36:14.568Z,13.80
2019-05-12T18:38:47.587Z,13.90
2019-05-12T18:41:20.534Z,13.80
2019-05-12T18:43:53.884Z,13.90
2019-05-12T18:46:26.796Z,13.50
2019-05-12T18:49:03.617Z,13.60
2019-05-12T18:51:34.263Z,13.90
2019-05-12T18:54:10.218Z,13.60
2019-05-12T18:56:41.355Z,13.40
2019-05-12T18:59:16.265Z,13.50
2019-05-12T19:01:47.105Z,13.70
2019-05-12T19:04:18.962Z,13.60
2019-05-12T19:06:51.301Z,13.60
2019-05-12T19:09:23.927Z,13.50
2019-05-12T19:11:56.611Z,13.40
2019-05-12T19:14:35.482Z,13.50
2019-05-12T19:17:03.655Z,13.60
2019-05-12T19:19:36.047Z,13.50
2019-05-12T19:22:09.726Z,13.50
2019-05-12T19:24:44.339Z,13.50
2019-05-12T19:27:20.622Z,13.20
2019-05-12T19:29:50.351Z,13.20
2019-05-12T19:32:27.875Z,13.10
2019-05-12T19:34:56.201Z,13.20
2019-05-12T19:37:30.080Z,13.00
2019-05-12T19:40:03.986Z,12.90
2019-05-12T19:42:36.655Z,12.80
2019-05-12T19:45:16.442Z,12.70
2019-05-12T19:47:44.330Z,12.60
2019-05-12T19:50:18.597Z,12.50
2019-05-12T19:52:53.444Z,12.10
2019-05-12T19:55:25.148Z,12.40
2019-05-12T19:57:57.264Z,12.10
2019-05-12T20:00:29.276Z,12.10
2019-05-12T20:03:04.328Z,12.20
2019-05-12T20:05:35.593Z,12.00
2019-05-12T20:08:13.410Z,12.30
2019-05-12T20:10:49.447Z,12.20
2019-05-12T20:13:20.625Z,12.00
2019-05-12T20:15:52.772Z,11.90
2019-05-12T20:18:25.610Z,11.90
2019-05-12T20:20:57.486Z,11.90
2019-05-12T20:23:29.761Z,11.90
2019-05-12T20:26:03.970Z,11.50
2019-05-12T20:28:42.145Z,11.40
2019-05-12T20:31:10.734Z,11.40
2019-05-12T20:33:43.558Z,11.50
2019-05-12T20:36:20.731Z,11.40
2019-05-12T20:38:50.443Z,11.40
2019-05-12T20:41:26.553Z,11.40
2019-05-12T20:43:56.942Z,11.10
2019-05-12T20:46:29.294Z,11.20
2019-05-12T20:49:09.795Z,11.20
2019-05-12T20:51:35.755Z,11.30
2019-05-12T20:54:14.150Z,11.30
2019-05-12T20:56:43.446Z,11.30
2019-05-12T20:59:22.322Z,11.20
2019-05-12T21:01:50.408Z,11.00
2019-05-12T21:04:31.476Z,11.20
2019-05-12T21:06:57.309Z,11.00
2019-05-12T21:09:30.325Z,11.20
2019-05-12T21:12:02.521Z,11.30
2019-05-12T21:14:34.874Z,11.20
2019-05-12T21:17:09.323Z,11.10
2019-05-12T21:19:54.717Z,11.00
2019-05-12T21:22:15.813Z,11.20
2019-05-12T21:24:48.226Z,11.10
2019-05-12T21:27:20.409Z,11.10
2019-05-12T21:29:54.119Z,11.40
2019-05-12T21:32:26.561Z,11.30
2019-05-12T21:34:59.610Z,11.40
2019-05-12T21:37:38.653Z,11.50
2019-05-12T21:40:06.394Z,11.20
2019-05-12T21:42:38.532Z,11.40
2019-05-12T21:45:10.793Z,11.50
2019-05-12T21:47:44.415Z,11.60
2019-05-12T21:50:17.277Z,11.50
2019-05-12T21:52:49.736Z,11.40
2019-05-12T21:55:24.044Z,11.40
2019-05-12T21:57:55.621Z,11.30
2019-05-12T22:00:35.784Z,11.50
2019-05-12T22:03:12.544Z,11.40
2019-05-12T22:05:53.073Z,11.40
2019-05-12T22:08:21.978Z,11.40
2019-05-12T22:10:54.212Z,11.40
2019-05-12T22:13:25.804Z,11.40
2019-05-12T22:15:59.052Z,11.50
2019-05-12T22:18:33.241Z,11.60
2019-05-12T22:21:07.043Z,11.40
2019-05-12T22:23:42.947Z,11.40
2019-05-12T22:26:13.339Z,11.60
2019-05-12T22:28:46.679Z,11.60
2019-05-12T22:31:19.495Z,11.70
2019-05-12T22:33:56.133Z,11.50
2019-05-12T22:36:30.008Z,11.60
2019-05-12T22:39:00.899Z,11.50
2019-05-12T22:41:36.857Z,11.50
2019-05-12T22:44:08.577Z,11.30
2019-05-12T22:46:40.764Z,11.50
2019-05-12T22:49:16.747Z,11.50
2019-05-12T22:51:46.689Z,11.60
2019-05-12T22:54:18.654Z,11.60
2019-05-12T22:56:55.215Z,11.70
2019-05-12T22:59:25.063Z,11.60
2019-05-12T23:01:57.596Z,11.50
2019-05-12T23:04:35.415Z,11.60
2019-05-12T23:07:03.239Z,11.60
2019-05-12T23:09:35.229Z,11.50
2019-05-12T23:12:09.741Z,11.60
2019-05-12T23:14:41.230Z,11.80
2019-05-12T23:17:13.822Z,11.30
2019-05-12T23:19:51.508Z,11.20
2019-05-12T23:22:19.824Z,11.20
2019-05-12T23:24:51.748Z,11.20
2019-05-12T23:27:29.770Z,11.30
2019-05-12T23:30:01.406Z,11.40
2019-05-12T23:32:34.642Z,11.30
2019-05-12T23:35:06.719Z,11.20
2019-05-12T23:37:40.309Z,11.10
2019-05-12T23:40:16.676Z,11.30
2019-05-12T23:42:47.096Z,11.30
2019-05-12T23:45:19.203Z,11.20
2019-05-12T23:47:51.112Z,11.10
2019-05-12T23:50:24.146Z,11.30
2019-05-12T23:52:56.913Z,11.10
2019-05-12T23:55:29.982Z,10.90
2019-05-12T23:58:04.136Z,11.20
